Minerva Atlantica — ZCPR7 — position and weather

sailwx.info

Track history (hours):
 
Tides and Currents Weather Stations Pressure Air Temp Water Temp Dewpoint Dewpoint Depression Visibility Wind Speed Wind Dir Waves Ship Positions

Minerva Atlantica

Last reported at 2017-Sep-28 03:53 UTC. Time now 2017-Oct-19 05:51 UTC.
Position N 25°29' W 079°34'.
Warning: this ship's position is 21 days out of date.

Length 250 m; draft 11.1 m.

Type: Ship (hazmat cat A). MMSI: 319161000.

Date/timePositionNaut miles runAvg speedWind from/ knotsBaromVisibWave heightAir tempDewpointWater temp
2017-Sep-28 03:53N 25°29' W 079°34'512.1
2017-Sep-28 03:28N 25°34' W 079°34'612.0
2017-Sep-28 02:58N 25°40' W 079°33'612.0
2017-Sep-28 02:29N 25°46' W 079°32'611.8
2017-Sep-28 02:00N 25°51' W 079°32'611.5
2017-Sep-28 01:30N 25°57' W 079°31'711.4
2017-Sep-28 00:56N 26°03' W 079°31'511.5
2017-Sep-28 00:30N 26°08' W 079°30'510.2
2017-Sep-28 00:00N 26°12' W 079°26'713.5
2017-Sep-27 23:30N 26°14' W 079°19'714.0
2017-Sep-27 23:00N 26°15' W 079°11'  
Track history (hours):
 
Tides and Currents Weather Stations Pressure Air Temp Water Temp Dewpoint Dewpoint Depression Visibility Wind Speed Wind Dir Waves Ship Positions

Minerva Atlantica

Last reported at 2017-Sep-28 03:53 UTC. Time now 2017-Oct-19 05:51 UTC.
Position N 25°29' W 079°34'.
Warning: this ship's position is 21 days out of date.

Length 250 m; draft 11.1 m.

Type: Ship (hazmat cat A). MMSI: 319161000.

Date/timePositionNaut miles runAvg speedWind from/ knotsBaromVisibWave heightAir tempDewpointWater temp
2017-Sep-28 03:53N 25°29' W 079°34'512.1
2017-Sep-28 03:28N 25°34' W 079°34'612.0
2017-Sep-28 02:58N 25°40' W 079°33'612.0
2017-Sep-28 02:29N 25°46' W 079°32'611.8
2017-Sep-28 02:00N 25°51' W 079°32'611.5
2017-Sep-28 01:30N 25°57' W 079°31'711.4
2017-Sep-28 00:56N 26°03' W 079°31'511.5
2017-Sep-28 00:30N 26°08' W 079°30'510.2
2017-Sep-28 00:00N 26°12' W 079°26'713.5
2017-Sep-27 23:30N 26°14' W 079°19'714.0
2017-Sep-27 23:00N 26°15' W 079°11'  

Dump ship's entire track history